createdAt,value
2022-08-28T00:00:15.924Z,89.22
2022-08-28T00:01:15.927Z,89.12
2022-08-28T00:02:15.895Z,89.01
2022-08-28T00:03:17.489Z,89.01
2022-08-28T00:04:15.950Z,89.01
2022-08-28T00:05:15.898Z,89.01
2022-08-28T00:06:15.844Z,88.92
2022-08-28T00:07:15.840Z,88.92
2022-08-28T00:08:15.874Z,89.01
2022-08-28T00:09:15.829Z,89.01
2022-08-28T00:10:15.795Z,89.12
2022-08-28T00:11:15.829Z,89.12
2022-08-28T00:12:15.776Z,89.12
2022-08-28T00:13:15.763Z,89.12
2022-08-28T00:14:15.745Z,89.22
2022-08-28T00:15:15.745Z,89.22
2022-08-28T00:16:15.790Z,89.22
2022-08-28T00:17:15.758Z,89.22
2022-08-28T00:18:15.738Z,89.22
2022-08-28T00:19:15.686Z,89.22
2022-08-28T00:20:15.669Z,89.32
2022-08-28T00:21:15.671Z,89.32
2022-08-28T00:22:15.664Z,89.42
2022-08-28T00:23:15.673Z,89.52
2022-08-28T00:24:15.635Z,89.52
2022-08-28T00:25:15.611Z,89.52
2022-08-28T00:26:15.590Z,89.62
2022-08-28T00:27:15.579Z,89.62
2022-08-28T00:28:23.697Z,89.62
2022-08-28T00:29:15.610Z,89.62
2022-08-28T00:30:15.534Z,89.62
2022-08-28T00:31:15.537Z,89.62
2022-08-28T00:32:15.513Z,89.62
2022-08-28T00:33:15.534Z,89.52
2022-08-28T00:34:15.485Z,89.52
2022-08-28T00:35:15.517Z,89.52
2022-08-28T00:36:15.454Z,89.62
2022-08-28T00:37:15.449Z,89.62
2022-08-28T00:38:15.462Z,89.62
2022-08-28T00:39:15.430Z,89.62
2022-08-28T00:40:15.436Z,89.72
2022-08-28T00:41:15.485Z,89.83
2022-08-28T00:42:15.390Z,89.83
2022-08-28T00:43:15.373Z,89.83
2022-08-28T00:44:15.370Z,89.83
2022-08-28T00:45:15.355Z,89.83
2022-08-28T00:46:15.411Z,89.92
2022-08-28T00:47:15.381Z,89.92
2022-08-28T00:48:15.349Z,89.92
2022-08-28T00:49:15.321Z,89.92
2022-08-28T00:50:15.263Z,90.03
2022-08-28T00:51:15.264Z,89.92
2022-08-28T00:52:15.251Z,89.92
2022-08-28T00:53:15.314Z,89.83
2022-08-28T00:54:15.207Z,89.83
2022-08-28T00:55:15.241Z,89.83
2022-08-28T00:56:15.213Z,89.83
2022-08-28T00:57:15.189Z,89.92
2022-08-28T00:58:15.242Z,89.92
2022-08-28T00:59:15.200Z,89.92
2022-08-28T01:00:15.136Z,89.83
2022-08-28T01:01:15.188Z,89.83
2022-08-28T01:02:15.112Z,89.72
2022-08-28T01:03:15.113Z,89.72
2022-08-28T01:04:15.091Z,89.52
2022-08-28T01:05:15.120Z,89.62
2022-08-28T01:06:15.079Z,89.62
2022-08-28T01:07:15.083Z,89.62
2022-08-28T01:08:15.213Z,89.52
2022-08-28T01:09:15.056Z,89.52
2022-08-28T01:10:15.017Z,89.62
2022-08-28T01:11:15.048Z,89.52
2022-08-28T01:12:14.984Z,89.52
2022-08-28T01:13:14.978Z,89.52
2022-08-28T01:14:14.971Z,89.52
2022-08-28T01:15:14.954Z,89.62
2022-08-28T01:16:14.997Z,89.62
2022-08-28T01:17:14.966Z,89.62
2022-08-28T01:18:15.031Z,89.62
2022-08-28T01:19:14.927Z,89.52
2022-08-28T01:20:14.873Z,89.52
2022-08-28T01:21:20.001Z,89.42
2022-08-28T01:22:14.850Z,89.42
2022-08-28T01:23:14.896Z,89.62
2022-08-28T01:24:14.874Z,89.52
2022-08-28T01:25:14.822Z,89.52
2022-08-28T01:26:14.802Z,89.52
2022-08-28T01:27:14.820Z,89.52
2022-08-28T01:28:15.027Z,89.62
2022-08-28T01:29:14.811Z,89.62
2022-08-28T01:30:14.774Z,89.62
2022-08-28T01:31:14.791Z,89.42
2022-08-28T01:32:14.724Z,89.32
2022-08-28T01:33:14.730Z,89.42
2022-08-28T01:34:14.691Z,89.42
2022-08-28T01:35:14.847Z,89.32
2022-08-28T01:36:14.694Z,89.32
2022-08-28T01:37:14.666Z,89.32
2022-08-28T01:38:19.626Z,89.22
2022-08-28T01:39:14.670Z,89.22
2022-08-28T01:40:14.617Z,89.22
2022-08-28T01:41:14.653Z,89.22
2022-08-28T01:42:14.598Z,89.32
2022-08-28T01:43:14.588Z,89.32
2022-08-28T01:44:14.562Z,89.22
2022-08-28T01:45:14.568Z,89.22
2022-08-28T01:46:14.614Z,89.22
2022-08-28T01:47:14.592Z,89.12
2022-08-28T01:48:14.638Z,89.12
2022-08-28T01:49:14.509Z,89.12
2022-08-28T01:50:14.492Z,89.22
2022-08-28T01:51:14.480Z,89.12
2022-08-28T01:52:14.475Z,89.22
2022-08-28T01:53:14.509Z,89.22
2022-08-28T01:54:14.442Z,89.32
2022-08-28T01:55:14.428Z,89.42
2022-08-28T01:56:14.423Z,89.42
2022-08-28T01:57:14.392Z,89.52
2022-08-28T01:58:14.672Z,89.62
2022-08-28T01:59:14.400Z,89.72
2022-08-28T02:00:14.370Z,89.76
2022-08-28T02:01:14.411Z,89.87
2022-08-28T02:02:14.345Z,89.87
2022-08-28T02:03:14.317Z,89.97
2022-08-28T02:04:14.385Z,90.17
2022-08-28T02:05:14.353Z,90.27
2022-08-28T02:06:14.287Z,90.27
2022-08-28T02:07:14.283Z,90.47
2022-08-28T02:08:14.528Z,90.47
2022-08-28T02:09:14.405Z,90.47
2022-08-28T02:10:14.231Z,90.58
2022-08-28T02:11:14.251Z,90.67
2022-08-28T02:12:14.227Z,90.82
2022-08-28T02:13:14.193Z,90.82
2022-08-28T02:14:14.188Z,90.82
2022-08-28T02:15:14.166Z,90.82
2022-08-28T02:16:14.198Z,90.92
2022-08-28T02:17:14.186Z,90.92
2022-08-28T02:18:14.558Z,90.92
2022-08-28T02:19:14.106Z,90.82
2022-08-28T02:20:14.103Z,90.92
2022-08-28T02:21:14.081Z,90.92
2022-08-28T02:22:14.092Z,91.02
2022-08-28T02:23:14.092Z,90.92
2022-08-28T02:24:14.080Z,91.12
2022-08-28T02:25:14.028Z,91.02
2022-08-28T02:26:14.027Z,91.22
2022-08-28T02:27:14.008Z,91.32
2022-08-28T02:28:14.222Z,91.42
2022-08-28T02:29:14.022Z,91.32
2022-08-28T02:30:13.982Z,91.63
2022-08-28T02:31:13.968Z,91.63
2022-08-28T02:32:13.946Z,91.53
2022-08-28T02:33:13.936Z,91.53
2022-08-28T02:34:13.929Z,91.63
2022-08-28T02:35:13.934Z,91.63
2022-08-28T02:36:13.905Z,91.63
2022-08-28T02:37:13.865Z,91.42
2022-08-28T02:38:13.949Z,91.32
2022-08-28T02:39:13.857Z,91.08
2022-08-28T02:40:13.870Z,90.98
2022-08-28T02:41:13.857Z,90.78
2022-08-28T02:42:13.829Z,90.78
2022-08-28T02:43:13.817Z,90.58
2022-08-28T02:44:13.882Z,90.47
2022-08-28T02:45:13.768Z,90.58
2022-08-28T02:46:13.874Z,90.37
2022-08-28T02:47:13.811Z,90.37
2022-08-28T02:48:17.009Z,90.37
2022-08-28T02:49:13.707Z,90.27
2022-08-28T02:50:13.716Z,90.27
2022-08-28T02:51:13.726Z,90.37
2022-08-28T02:52:13.690Z,90.37
2022-08-28T02:53:13.708Z,90.37
2022-08-28T02:54:13.676Z,90.47
2022-08-28T02:55:13.649Z,90.47
2022-08-28T02:56:13.645Z,90.47
2022-08-28T02:57:13.613Z,90.47
2022-08-28T02:58:13.821Z,90.58
2022-08-28T02:59:13.620Z,90.67
2022-08-28T03:00:13.599Z,90.67
2022-08-28T03:01:13.661Z,90.92
2022-08-28T03:02:13.608Z,90.92
2022-08-28T03:03:13.531Z,91.12
2022-08-28T03:04:13.531Z,91.12
2022-08-28T03:05:13.595Z,91.22
2022-08-28T03:06:13.512Z,91.42
2022-08-28T03:07:13.480Z,91.63
2022-08-28T03:08:13.653Z,91.63
2022-08-28T03:09:13.466Z,91.73
2022-08-28T03:10:13.460Z,91.77
2022-08-28T03:11:13.516Z,91.87
2022-08-28T03:12:13.423Z,91.97
2022-08-28T03:13:23.058Z,91.97
2022-08-28T03:14:13.406Z,92.18
2022-08-28T03:15:13.373Z,92.28
2022-08-28T03:16:13.454Z,92.38
2022-08-28T03:17:13.390Z,92.48
2022-08-28T03:18:13.606Z,92.48
2022-08-28T03:19:13.329Z,92.48
2022-08-28T03:20:13.325Z,92.48
2022-08-28T03:21:13.294Z,92.58
2022-08-28T03:22:13.307Z,92.58
2022-08-28T03:23:13.310Z,92.58
2022-08-28T03:24:15.683Z,92.68
2022-08-28T03:25:13.252Z,92.68
2022-08-28T03:26:13.250Z,92.79
2022-08-28T03:27:13.218Z,92.93
2022-08-28T03:28:13.350Z,93.13
2022-08-28T03:29:13.229Z,93.23
2022-08-28T03:30:13.200Z,93.23
2022-08-28T03:31:13.216Z,93.33
2022-08-28T03:32:13.166Z,93.23
2022-08-28T03:33:13.146Z,93.33
2022-08-28T03:34:13.148Z,93.43
2022-08-28T03:35:13.170Z,93.33
2022-08-28T03:36:13.149Z,93.33
2022-08-28T03:37:13.111Z,93.23
2022-08-28T03:38:13.206Z,93.13
2022-08-28T03:39:13.066Z,92.83
2022-08-28T03:40:13.143Z,92.83
2022-08-28T03:41:13.076Z,92.58
2022-08-28T03:42:13.036Z,92.58
2022-08-28T03:43:13.025Z,92.58
2022-08-28T03:44:13.015Z,92.48
2022-08-28T03:45:12.991Z,92.48
2022-08-28T03:46:13.078Z,92.38
2022-08-28T03:47:12.994Z,92.28
2022-08-28T03:48:13.100Z,92.18
2022-08-28T03:49:12.969Z,92.18
2022-08-28T03:50:12.998Z,92.08
2022-08-28T03:51:12.904Z,92.08
2022-08-28T03:52:12.921Z,92.08
2022-08-28T03:53:12.905Z,92.08
2022-08-28T03:54:12.879Z,92.08
2022-08-28T03:55:12.871Z,92.08
2022-08-28T03:56:12.850Z,92.18
2022-08-28T03:57:12.824Z,92.08
2022-08-28T03:58:18.932Z,92.08
2022-08-28T03:59:12.857Z,92.08
2022-08-28T04:00:12.801Z,92.08
2022-08-28T04:01:12.852Z,92.08
2022-08-28T04:02:12.772Z,92.08
2022-08-28T04:03:12.863Z,91.97
2022-08-28T04:04:12.770Z,91.97
2022-08-28T04:05:12.755Z,91.97
2022-08-28T04:06:12.778Z,92.08
2022-08-28T04:07:12.693Z,92.08
2022-08-28T04:08:12.770Z,92.08
2022-08-28T04:09:12.694Z,92.08
2022-08-28T04:10:12.674Z,92.08
2022-08-28T04:11:12.686Z,92.08
2022-08-28T04:12:12.597Z,91.97
2022-08-28T04:13:12.570Z,92.08
2022-08-28T04:14:12.559Z,92.08
2022-08-28T04:15:12.542Z,92.08
2022-08-28T04:16:12.574Z,92.08
2022-08-28T04:17:12.598Z,91.97
2022-08-28T04:18:12.718Z,91.97
2022-08-28T04:19:12.489Z,91.97
2022-08-28T04:20:12.545Z,91.97
2022-08-28T04:21:12.466Z,91.97
2022-08-28T04:22:12.467Z,91.87
2022-08-28T04:23:12.481Z,91.77
2022-08-28T04:24:12.483Z,91.87
2022-08-28T04:25:12.428Z,91.67
2022-08-28T04:26:12.424Z,91.57
2022-08-28T04:27:12.377Z,91.47
2022-08-28T04:28:12.584Z,91.37
2022-08-28T04:29:12.388Z,91.37
2022-08-28T04:30:12.360Z,91.37
2022-08-28T04:31:12.334Z,91.27
2022-08-28T04:32:12.374Z,91.32
2022-08-28T04:33:12.319Z,91.27
2022-08-28T04:34:12.338Z,91.27
2022-08-28T04:35:12.321Z,91.12
2022-08-28T04:36:12.279Z,91.02
2022-08-28T04:37:12.267Z,91.02
2022-08-28T04:38:12.247Z,91.02
2022-08-28T04:39:12.224Z,91.12
2022-08-28T04:40:12.311Z,91.02
2022-08-28T04:41:12.246Z,91.02
2022-08-28T04:42:12.205Z,90.92
2022-08-28T04:43:12.176Z,90.92
2022-08-28T04:44:12.183Z,90.92
2022-08-28T04:45:12.148Z,90.92
2022-08-28T04:46:12.253Z,91.02
2022-08-28T04:47:12.152Z,91.02
2022-08-28T04:48:13.504Z,91.06
2022-08-28T04:49:12.113Z,91.16
2022-08-28T04:50:12.105Z,91.27
2022-08-28T04:51:12.071Z,91.27
2022-08-28T04:52:12.120Z,91.27
2022-08-28T04:53:12.075Z,91.27
2022-08-28T04:54:12.054Z,91.27
2022-08-28T04:55:12.013Z,91.16
2022-08-28T04:56:12.023Z,91.16
2022-08-28T04:57:11.998Z,91.27
2022-08-28T04:58:12.241Z,91.27
2022-08-28T04:59:12.008Z,91.37
2022-08-28T05:00:11.973Z,91.27
2022-08-28T05:01:11.978Z,91.16
2022-08-28T05:02:11.994Z,91.16
2022-08-28T05:03:11.996Z,91.27
2022-08-28T05:04:11.924Z,91.27
2022-08-28T05:05:11.927Z,91.27
2022-08-28T05:06:11.885Z,91.16
2022-08-28T05:07:11.866Z,91.16
2022-08-28T05:08:12.136Z,91.06
2022-08-28T05:09:11.839Z,91.06
2022-08-28T05:10:11.835Z,90.82
2022-08-28T05:11:11.840Z,90.82
2022-08-28T05:12:11.820Z,90.82
2022-08-28T05:13:11.779Z,90.72
2022-08-28T05:14:15.945Z,90.52
2022-08-28T05:15:11.765Z,90.41
2022-08-28T05:16:11.833Z,90.52
2022-08-28T05:17:11.756Z,90.52
2022-08-28T05:18:11.861Z,90.41
2022-08-28T05:19:11.730Z,90.31
2022-08-28T05:20:11.696Z,90.21
2022-08-28T05:21:14.434Z,90.11
2022-08-28T05:22:11.684Z,90.11
2022-08-28T05:23:11.720Z,90.01
2022-08-28T05:24:11.649Z,90.01
2022-08-28T05:25:11.636Z,90.11
2022-08-28T05:26:11.648Z,89.91
2022-08-28T05:27:11.600Z,89.81
2022-08-28T05:28:12.290Z,89.70
2022-08-28T05:29:11.609Z,89.50
2022-08-28T05:30:11.569Z,89.26
2022-08-28T05:31:11.618Z,89.26
2022-08-28T05:32:11.541Z,89.16
2022-08-28T05:33:11.517Z,89.26
2022-08-28T05:34:11.545Z,89.26
2022-08-28T05:35:11.540Z,89.06
2022-08-28T05:36:11.513Z,88.96
2022-08-28T05:37:11.467Z,88.85
2022-08-28T05:38:11.591Z,88.65
2022-08-28T05:39:11.438Z,88.55
2022-08-28T05:40:11.484Z,88.45
2022-08-28T05:41:11.457Z,88.35
2022-08-28T05:42:11.433Z,88.15
2022-08-28T05:43:11.409Z,87.90
2022-08-28T05:44:11.390Z,87.90
2022-08-28T05:45:11.366Z,87.81
2022-08-28T05:46:11.402Z,87.70
2022-08-28T05:47:11.367Z,87.60
2022-08-28T05:48:11.451Z,87.50
2022-08-28T05:49:11.315Z,87.30
2022-08-28T05:50:11.344Z,87.10
2022-08-28T05:51:11.287Z,86.99
2022-08-28T05:52:11.285Z,86.90
2022-08-28T05:53:11.310Z,86.65
2022-08-28T05:54:11.264Z,86.55
2022-08-28T05:55:11.244Z,86.35
2022-08-28T05:56:11.242Z,86.25
2022-08-28T05:57:11.217Z,86.25
2022-08-28T05:58:11.265Z,86.04
2022-08-28T05:59:11.178Z,86.04
2022-08-28T06:00:11.199Z,85.84
2022-08-28T06:01:11.163Z,85.94
2022-08-28T06:02:11.216Z,85.74
2022-08-28T06:03:11.124Z,85.64
2022-08-28T06:04:11.223Z,85.54
2022-08-28T06:05:12.867Z,85.44
2022-08-28T06:06:11.109Z,85.30
2022-08-28T06:07:11.074Z,85.10
2022-08-28T06:08:11.170Z,84.99
2022-08-28T06:09:11.094Z,84.99
2022-08-28T06:10:11.057Z,84.89
2022-08-28T06:11:11.038Z,84.69
2022-08-28T06:12:11.011Z,84.59
2022-08-28T06:13:11.014Z,84.69
2022-08-28T06:14:11.002Z,84.69
2022-08-28T06:15:11.028Z,84.59
2022-08-28T06:16:10.977Z,84.59
2022-08-28T06:17:10.982Z,84.59
2022-08-28T06:18:10.939Z,84.15
2022-08-28T06:19:10.944Z,84.05
2022-08-28T06:20:10.940Z,83.95
2022-08-28T06:21:10.965Z,83.74
2022-08-28T06:22:10.898Z,83.64
2022-08-28T06:23:10.895Z,83.74
2022-08-28T06:24:10.848Z,83.74
2022-08-28T06:25:10.854Z,83.74
2022-08-28T06:26:11.122Z,83.74
2022-08-28T06:27:10.850Z,83.54
2022-08-28T06:28:10.823Z,83.54
2022-08-28T06:29:10.818Z,83.30
2022-08-28T06:30:10.780Z,83.20
2022-08-28T06:31:24.228Z,82.70
2022-08-28T06:32:10.853Z,82.59
2022-08-28T06:33:10.793Z,82.39
2022-08-28T06:34:10.722Z,81.95
2022-08-28T06:35:10.805Z,81.65
2022-08-28T06:36:10.699Z,81.24
2022-08-28T06:37:10.721Z,80.94
2022-08-28T06:38:10.684Z,80.80
2022-08-28T06:39:10.669Z,80.50
2022-08-28T06:40:10.653Z,80.00
2022-08-28T06:41:10.650Z,79.66
2022-08-28T06:42:10.641Z,79.76
2022-08-28T06:43:10.610Z,79.16
2022-08-28T06:44:10.589Z,78.85
2022-08-28T06:45:10.606Z,78.71
2022-08-28T06:46:10.669Z,78.61
2022-08-28T06:47:10.603Z,78.31
2022-08-28T06:48:10.563Z,78.21
2022-08-28T06:49:10.540Z,78.41
2022-08-28T06:50:10.513Z,78.41
2022-08-28T06:51:10.517Z,78.31
2022-08-28T06:52:10.558Z,78.21
2022-08-28T06:53:10.520Z,78.31
2022-08-28T06:54:10.454Z,78.31
2022-08-28T06:55:10.472Z,78.31
2022-08-28T06:56:10.438Z,78.01
2022-08-28T06:57:10.433Z,77.81
2022-08-28T06:58:10.454Z,77.81
2022-08-28T06:59:10.443Z,77.81
2022-08-28T07:00:10.380Z,77.31
2022-08-28T07:01:10.429Z,77.31
2022-08-28T07:02:10.529Z,77.40
2022-08-28T07:03:10.356Z,77.27
2022-08-28T07:04:10.366Z,77.07
2022-08-28T07:05:10.337Z,76.76
2022-08-28T07:07:31.428Z,76.67
2022-08-28T07:08:27.870Z,76.76
2022-08-28T07:09:27.913Z,76.56
2022-08-28T07:10:27.835Z,76.56
2022-08-28T07:11:27.838Z,76.46
2022-08-28T07:12:27.828Z,76.23
2022-08-28T07:13:32.123Z,76.03
2022-08-28T07:14:27.794Z,75.82
2022-08-28T07:15:27.877Z,75.82
2022-08-28T07:16:27.853Z,75.72
2022-08-28T07:17:27.758Z,75.72
2022-08-28T07:18:27.728Z,75.59
2022-08-28T07:19:27.753Z,75.38
2022-08-28T07:20:27.799Z,74.88
2022-08-28T07:21:27.720Z,74.98
2022-08-28T07:22:27.698Z,75.18
2022-08-28T07:23:27.706Z,74.88
2022-08-28T07:24:27.660Z,74.88
2022-08-28T07:25:27.676Z,74.58
2022-08-28T07:26:27.681Z,74.78
2022-08-28T07:27:27.658Z,74.68
2022-08-28T07:28:27.668Z,74.58
2022-08-28T07:29:27.627Z,74.48
2022-08-28T07:30:27.593Z,74.38
2022-08-28T07:31:27.824Z,74.18
2022-08-28T07:32:27.552Z,74.38
2022-08-28T07:33:27.588Z,74.18
2022-08-28T07:34:27.554Z,74.28
2022-08-28T07:35:27.527Z,74.18
2022-08-28T07:36:29.476Z,74.18
2022-08-28T07:37:27.550Z,74.58
2022-08-28T07:38:27.488Z,74.58
2022-08-28T07:39:27.481Z,74.58
2022-08-28T07:40:27.543Z,74.78
2022-08-28T07:41:27.485Z,74.48
2022-08-28T07:42:27.459Z,74.15
2022-08-28T07:43:27.428Z,73.64
2022-08-28T07:44:27.401Z,73.24
2022-08-28T07:45:27.415Z,73.10
2022-08-28T07:46:27.417Z,72.71
2022-08-28T07:47:27.384Z,72.90
2022-08-28T07:48:27.438Z,72.90
2022-08-28T07:49:27.368Z,73.00
2022-08-28T07:50:27.344Z,72.90
2022-08-28T07:51:27.325Z,72.47
2022-08-28T07:52:27.299Z,71.86
2022-08-28T07:53:27.332Z,72.30
2022-08-28T07:54:27.285Z,72.71
2022-08-28T07:55:27.303Z,72.50
2022-08-28T07:56:27.240Z,72.60
2022-08-28T07:57:27.274Z,72.94
2022-08-28T07:58:27.242Z,72.64
2022-08-28T07:59:29.596Z,72.90
2022-08-28T08:00:27.207Z,72.90
2022-08-28T08:01:27.258Z,72.60
2022-08-28T08:02:27.167Z,72.60
2022-08-28T08:03:27.225Z,72.80
2022-08-28T08:04:27.252Z,72.60
2022-08-28T08:05:27.141Z,72.60
2022-08-28T08:06:27.130Z,72.90
2022-08-28T08:07:27.112Z,73.24
2022-08-28T08:08:27.123Z,72.90
2022-08-28T08:09:27.326Z,72.71
2022-08-28T08:10:27.135Z,72.80
2022-08-28T08:11:27.054Z,72.40
2022-08-28T08:12:29.325Z,71.83
2022-08-28T08:13:27.041Z,71.53
2022-08-28T08:14:27.056Z,70.89
2022-08-28T08:15:31.114Z,70.59
2022-08-28T08:16:27.032Z,70.39
2022-08-28T08:17:26.964Z,70.19
2022-08-28T08:18:26.996Z,70.09
2022-08-28T08:19:26.946Z,70.09
2022-08-28T08:20:26.982Z,69.89
2022-08-28T08:21:30.103Z,70.09
2022-08-28T08:22:26.927Z,69.66
2022-08-28T08:23:26.889Z,69.56
2022-08-28T08:24:26.958Z,69.46
2022-08-28T08:25:26.899Z,69.46
2022-08-28T08:26:26.897Z,69.16
2022-08-28T08:27:26.836Z,69.26
2022-08-28T08:28:26.863Z,69.35
2022-08-28T08:29:26.814Z,69.26
2022-08-28T08:30:26.824Z,69.46
2022-08-28T08:31:26.957Z,69.66
2022-08-28T08:32:26.843Z,69.99
2022-08-28T08:33:26.793Z,69.96
2022-08-28T08:34:26.781Z,69.86
2022-08-28T08:35:26.815Z,69.79
2022-08-28T08:36:26.745Z,69.99
2022-08-28T08:37:26.744Z,69.89
2022-08-28T08:38:26.735Z,69.99
2022-08-28T08:39:26.686Z,70.29
2022-08-28T08:40:26.741Z,70.32
2022-08-28T08:41:26.674Z,70.63
2022-08-28T08:42:26.687Z,70.96
2022-08-28T08:43:26.660Z,70.96
2022-08-28T08:44:33.190Z,71.30
2022-08-28T08:45:26.668Z,71.80
2022-08-28T08:46:26.640Z,72.00
2022-08-28T08:47:26.634Z,72.00
2022-08-28T08:48:26.619Z,72.10
2022-08-28T08:49:26.565Z,71.70
2022-08-28T08:50:26.929Z,71.90
2022-08-28T08:51:26.545Z,71.90
2022-08-28T08:52:26.531Z,71.80
2022-08-28T08:53:26.503Z,71.80
2022-08-28T08:54:26.534Z,71.83
2022-08-28T08:55:26.487Z,71.90
2022-08-28T08:56:34.628Z,71.70
2022-08-28T08:57:26.477Z,71.80
2022-08-28T08:58:26.490Z,71.90
2022-08-28T08:59:26.487Z,71.90
2022-08-28T09:00:26.422Z,71.70
2022-08-28T09:01:26.486Z,71.80
2022-08-28T09:02:31.544Z,71.60
2022-08-28T09:03:26.442Z,71.40
2022-08-28T09:04:26.371Z,71.80
2022-08-28T09:05:26.379Z,71.90
2022-08-28T09:06:26.351Z,72.00
2022-08-28T09:07:26.364Z,71.90
2022-08-28T09:08:26.396Z,72.10
2022-08-28T09:09:26.316Z,71.90
2022-08-28T09:10:26.332Z,71.90
2022-08-28T09:11:26.282Z,71.77
2022-08-28T09:12:26.300Z,71.77
2022-08-28T09:13:26.320Z,71.56
2022-08-28T09:14:27.017Z,71.47
2022-08-28T09:15:26.371Z,71.36
2022-08-28T09:16:26.290Z,71.23
2022-08-28T09:17:26.218Z,70.93
2022-08-28T09:18:26.204Z,70.39
2022-08-28T09:19:26.164Z,69.79
2022-08-28T09:20:32.770Z,69.49
2022-08-28T09:21:29.294Z,69.39
2022-08-28T09:22:26.144Z,69.59
2022-08-28T09:23:26.206Z,69.46
2022-08-28T09:24:26.120Z,69.35
2022-08-28T09:25:26.089Z,69.06
2022-08-28T09:26:26.108Z,68.96
2022-08-28T09:27:26.113Z,69.06
2022-08-28T09:28:26.062Z,69.26
2022-08-28T09:29:26.043Z,69.26
2022-08-28T09:30:26.036Z,69.39
2022-08-28T09:31:26.077Z,69.82
2022-08-28T09:32:26.118Z,70.43
2022-08-28T09:33:25.983Z,70.53
2022-08-28T09:34:25.996Z,70.63
2022-08-28T09:35:26.009Z,70.76
2022-08-28T09:36:25.973Z,70.96
2022-08-28T09:37:25.968Z,71.06
2022-08-28T09:38:27.854Z,71.06
2022-08-28T09:39:25.943Z,70.86
2022-08-28T09:40:25.958Z,70.76
2022-08-28T09:41:25.886Z,70.53
2022-08-28T09:42:25.888Z,70.63
2022-08-28T09:43:25.926Z,70.12
2022-08-28T09:44:25.891Z,70.23
2022-08-28T09:45:25.849Z,70.12
2022-08-28T09:46:25.905Z,70.23
2022-08-28T09:47:25.826Z,70.23
2022-08-28T09:48:25.825Z,69.82
2022-08-28T09:49:25.806Z,69.62
2022-08-28T09:50:25.793Z,69.12
2022-08-28T09:51:25.746Z,69.09
2022-08-28T09:52:25.752Z,68.79
2022-08-28T09:53:25.748Z,68.59
2022-08-28T09:54:25.837Z,68.05
2022-08-28T09:55:25.710Z,67.96
2022-08-28T09:56:25.714Z,67.85
2022-08-28T09:57:25.670Z,67.32
2022-08-28T09:58:25.678Z,66.52
2022-08-28T09:59:25.653Z,66.49
2022-08-28T10:00:25.700Z,66.19
2022-08-28T10:01:25.741Z,65.78
2022-08-28T10:02:25.643Z,65.36
2022-08-28T10:03:25.607Z,64.86
2022-08-28T10:04:25.675Z,64.72
2022-08-28T10:05:25.838Z,63.89
2022-08-28T10:06:25.589Z,63.17
2022-08-28T10:07:25.574Z,62.13
2022-08-28T10:08:25.540Z,61.51
2022-08-28T10:09:25.518Z,61.60
2022-08-28T10:10:25.551Z,61.41
2022-08-28T10:11:25.528Z,61.38
2022-08-28T10:12:25.518Z,61.30
2022-08-28T10:13:25.482Z,61.47
2022-08-28T10:14:25.491Z,61.68
2022-08-28T10:15:25.475Z,60.75
2022-08-28T10:16:25.518Z,59.92
2022-08-28T10:17:25.431Z,59.62
2022-08-28T10:18:25.443Z,59.72
2022-08-28T10:19:25.392Z,58.80
2022-08-28T10:20:25.426Z,57.67
2022-08-28T10:21:25.376Z,58.07
2022-08-28T10:22:25.429Z,57.64
2022-08-28T10:23:25.357Z,57.32
2022-08-28T10:24:27.250Z,56.59
2022-08-28T10:25:25.328Z,55.67
2022-08-28T10:26:25.346Z,55.47
2022-08-28T10:27:25.345Z,55.35
2022-08-28T10:28:25.311Z,55.35
2022-08-28T10:29:25.284Z,54.85
2022-08-28T10:30:25.272Z,54.75
2022-08-28T10:31:25.274Z,55.15
2022-08-28T10:32:25.255Z,54.82
2022-08-28T10:33:25.279Z,55.55
2022-08-28T10:34:25.214Z,55.65
2022-08-28T10:35:25.216Z,55.47
2022-08-28T10:36:28.798Z,55.44
2022-08-28T10:37:25.159Z,54.33
2022-08-28T10:38:25.208Z,53.86
2022-08-28T10:39:25.129Z,53.96
2022-08-28T10:40:25.248Z,54.25
2022-08-28T10:41:25.108Z,53.86
2022-08-28T10:42:25.158Z,53.58
2022-08-28T10:43:25.088Z,54.28
2022-08-28T10:44:25.148Z,54.08
2022-08-28T10:45:25.089Z,54.78
2022-08-28T10:46:27.205Z,54.71
2022-08-28T10:47:25.051Z,54.90
2022-08-28T10:48:25.053Z,54.93
2022-08-28T10:49:25.053Z,55.43
2022-08-28T10:50:25.016Z,55.82
2022-08-28T10:51:34.777Z,56.02
2022-08-28T10:52:24.988Z,55.80
2022-08-28T10:53:24.964Z,55.40
2022-08-28T10:54:24.969Z,55.13
2022-08-28T10:55:24.964Z,55.73
2022-08-28T10:56:24.988Z,56.25
2022-08-28T10:57:24.915Z,56.45
2022-08-28T10:58:25.519Z,56.75
2022-08-28T10:59:24.882Z,56.68
2022-08-28T11:00:24.940Z,56.98
2022-08-28T11:01:24.886Z,56.77
2022-08-28T11:02:24.965Z,56.87
2022-08-28T11:03:34.322Z,56.98
2022-08-28T11:04:25.673Z,57.17
2022-08-28T11:05:24.804Z,56.90
2022-08-28T11:06:24.899Z,57.07
2022-08-28T11:07:24.778Z,57.07
2022-08-28T11:08:24.801Z,57.07
2022-08-28T11:09:24.762Z,57.20
2022-08-28T11:10:24.754Z,57.60
2022-08-28T11:11:24.773Z,57.40
2022-08-28T11:12:24.744Z,57.50
2022-08-28T11:13:24.720Z,57.40
2022-08-28T11:14:24.709Z,57.40
2022-08-28T11:15:24.677Z,57.17
2022-08-28T11:16:24.753Z,57.28
2022-08-28T11:17:24.688Z,57.17
2022-08-28T11:18:25.350Z,57.07
2022-08-28T11:19:24.640Z,57.17
2022-08-28T11:20:24.621Z,56.98
2022-08-28T11:21:24.599Z,57.17
2022-08-28T11:22:24.658Z,57.07
2022-08-28T11:23:24.568Z,56.65
2022-08-28T11:24:24.571Z,56.75
2022-08-28T11:25:26.515Z,56.55
2022-08-28T11:26:24.545Z,56.75
2022-08-28T11:27:24.524Z,56.42
2022-08-28T11:28:24.597Z,56.12
2022-08-28T11:29:24.510Z,56.32
2022-08-28T11:30:24.512Z,56.45
2022-08-28T11:31:29.164Z,56.85
2022-08-28T11:32:24.495Z,57.17
2022-08-28T11:33:24.527Z,57.87
2022-08-28T11:34:24.485Z,58.20
2022-08-28T11:35:24.423Z,58.40
2022-08-28T11:36:24.422Z,58.10
2022-08-28T11:37:24.407Z,58.10
2022-08-28T11:38:24.412Z,58.29
2022-08-28T11:39:24.426Z,58.10
2022-08-28T11:40:24.471Z,58.20
2022-08-28T11:41:24.365Z,58.20
2022-08-28T11:42:24.341Z,58.50
2022-08-28T11:43:24.330Z,58.89
2022-08-28T11:44:24.381Z,58.10
2022-08-28T11:45:24.323Z,58.40
2022-08-28T11:46:24.419Z,58.10
2022-08-28T11:47:24.282Z,58.00
2022-08-28T11:48:24.252Z,58.20
2022-08-28T11:49:24.237Z,58.00
2022-08-28T11:50:24.301Z,58.10
2022-08-28T11:51:24.222Z,58.10
2022-08-28T11:52:24.225Z,58.00
2022-08-28T11:53:24.214Z,58.20
2022-08-28T11:54:24.210Z,58.59
2022-08-28T11:55:24.197Z,58.59
2022-08-28T11:56:30.512Z,58.70
2022-08-28T11:57:24.144Z,58.70
2022-08-28T11:58:24.159Z,58.04
2022-08-28T11:59:24.165Z,57.35
2022-08-28T12:00:24.135Z,56.85
2022-08-28T12:01:24.116Z,56.52
2022-08-28T12:02:24.183Z,56.62
2022-08-28T12:03:24.062Z,56.72
2022-08-28T12:04:24.114Z,56.42
2022-08-28T12:05:24.068Z,56.12
2022-08-28T12:06:24.101Z,56.42
2022-08-28T12:07:24.008Z,55.80
2022-08-28T12:08:24.022Z,55.27
2022-08-28T12:09:24.013Z,54.78
2022-08-28T12:10:23.996Z,54.46
2022-08-28T12:11:23.956Z,54.65
2022-08-28T12:12:23.988Z,54.35
2022-08-28T12:13:23.996Z,54.35
2022-08-28T12:14:23.951Z,54.46
2022-08-28T12:15:23.925Z,53.63
2022-08-28T12:16:24.053Z,53.83
2022-08-28T12:17:26.859Z,53.96
2022-08-28T12:18:23.889Z,54.35
2022-08-28T12:19:23.867Z,54.55
2022-08-28T12:20:23.836Z,54.55
2022-08-28T12:21:23.845Z,54.13
2022-08-28T12:22:23.819Z,53.31
2022-08-28T12:23:23.856Z,52.39
2022-08-28T12:24:23.788Z,52.49
2022-08-28T12:25:23.851Z,52.29
2022-08-28T12:26:23.777Z,52.29
2022-08-28T12:27:23.766Z,53.21
2022-08-28T12:28:23.823Z,52.89
2022-08-28T12:29:27.195Z,52.39
2022-08-28T12:30:23.737Z,51.87
2022-08-28T12:31:23.766Z,51.15
2022-08-28T12:32:23.706Z,50.04
2022-08-28T12:33:23.711Z,50.13
2022-08-28T12:34:23.724Z,49.74
2022-08-28T12:35:23.723Z,50.26
2022-08-28T12:36:23.666Z,50.46
2022-08-28T12:37:23.651Z,50.95
2022-08-28T12:38:23.656Z,50.56
2022-08-28T12:39:23.658Z,50.43
2022-08-28T12:40:23.767Z,50.34
2022-08-28T12:41:23.612Z,50.11
2022-08-28T12:42:23.608Z,49.40
2022-08-28T12:43:23.564Z,49.49
2022-08-28T12:44:23.606Z,49.19
2022-08-28T12:45:23.535Z,49.52
2022-08-28T12:46:23.602Z,49.62
2022-08-28T12:47:23.529Z,49.40
2022-08-28T12:48:23.483Z,48.58
2022-08-28T12:49:23.519Z,48.48
2022-08-28T12:50:23.549Z,48.58
2022-08-28T12:51:23.466Z,48.28
2022-08-28T12:52:23.442Z,48.38
2022-08-28T12:53:23.438Z,48.08